Airfield :
LOGIN :

Register | Disclaimer

   EN    FR    IT 

 










Legend :    VFR   Marginal VFR   IFR   Intensive IFR   Very Intensive IFR
Visi :
Ceiling :
>= 8 km
>= 3000ft
5 to 8 km
1000 to 3000 ft
1500m to 5 km
500 to 1000 ft
800 to 1500m
200 to 500 ft
< 800m
< 200 ft
Symbols :   Thunderstorms  Fog  Heavy snow  Heavy precipitations  Wind > 20 kt
SIGMETs :     Misc.  Thunderstorms  Icing  Turbulence  Mountain Waves  Volcanic Ashes






- Airport Elevation : 20 ft


EBFN - Koksijde

CURRENT METAR :
  • 172025Z AUTO 18009KT 9999 FEW038/// BKN230/// 13/11 Q1006 BLU

EXPIRED METARs :
  • 171955Z AUTO 17009KT 9999 BKN034/// BKN055/// 13/11 Q1007 BLU
  • 171925Z AUTO 16007KT 9999 OVC035/// 13/11 Q1007 BLU
  • 171855Z 16006KT 9999 -SHRA FEW025 SCT040 13/11 Q1006 BLU BLU TEMPO WHT
  • 171825Z 16009KT 9999 -SHRA FEW025 SCT040 13/11 Q1008 BLU BLU TEMPO WHT
  • 171821Z 16009KT 9999 -SHRA FEW030 SCT040 14/10 Q1008 BLU BLU TEMPO WHT
  • 171755Z 15006KT 9999 FEW030 SCT080 14/10 Q1007 BLU BLU

TAF TAF EBFN
Valid from the 17 at 19:00 until the 18 at 07:00 UTC


171541Z 1719/1807 19013KT 9999 FEW030
TEMPO 1719/1807 6000 -SHRA SCT020
TEMPO 1719/1807 4000 SHRA SCT014TCU
PROB40
TEMPO 1805/1807 22020G35KT 3000 TSRA SCT012CB



MET'MAP, your aeronautical weather chart ! - Copyright ORBIFLY December 2007 - Disclaimer

ORBIFLY MET'MAP TEAM :

Programming & Development : Alexandra Zaïnal
Concept & Development : Baudouin d'Aumeries
Co-Development & Prog : Marc-Olivier Méhu
Technical & hardware support : Manuel Goepfert

Contact : metmap@orbifly.com




SOURCES & CREDITS :

   NOAA